Time;durP1;ratioP1;P1;durP2;ratioP2;P2;SDS_P1;SDS_P2;PMS_P1;PMS_P2;Temp;Humidity;BMP_temperature;BMP_pressure;BME280_temperature;BME280_humidity;BME280_pressure;Samples;Min_cycle;Max_cycle;Signal;HPM_P1;HPM_P2
2022/01/29 00:00:48;;;;;;;4.53;3.17;;;-0.50;99.90;;;;;;2089645;28;20242;-69
2022/01/29 00:01:49;;;;;;;5.27;3.27;;;-0.50;99.90;;;;;;2090208;28;20178;-68
2022/01/29 00:02:50;;;;;;;5.77;3.20;;;-0.50;99.90;;;;;;2090197;28;20640;-69
2022/01/29 00:03:50;;;;;;;6.27;3.30;;;-0.50;99.90;;;;;;2090217;28;20250;-69
2022/01/29 00:04:51;;;;;;;5.50;3.37;;;-0.50;99.90;;;;;;2090128;28;20168;-68
2022/01/29 00:05:53;;;;;;;5.93;3.50;;;-0.60;99.90;;;;;;2090276;28;20685;-68
2022/01/29 00:06:53;;;;;;;5.47;3.65;;;-0.60;99.90;;;;;;2091591;28;20847;-68
2022/01/29 00:07:54;;;;;;;7.13;4.10;;;-0.60;99.90;;;;;;2098184;28;20182;-68
2022/01/29 00:08:56;;;;;;;7.07;4.00;;;-0.70;99.90;;;;;;2098719;28;20172;-68
2022/01/29 00:10:02;;;;;;;6.65;4.18;;;-0.80;99.90;;;;;;2098677;28;20187;-68
2022/01/29 00:11:10;;;;;;;10.27;4.03;;;-0.90;99.90;;;;;;2098428;28;20203;-68
2022/01/29 00:12:11;;;;;;;8.15;4.28;;;-0.90;99.90;;;;;;2098640;28;20171;-68
2022/01/29 00:13:12;;;;;;;5.47;3.93;;;-0.90;99.90;;;;;;2098358;28;20190;-69
2022/01/29 00:14:12;;;;;;;6.73;3.73;;;-0.90;99.90;;;;;;2098537;28;20201;-68
2022/01/29 00:15:13;;;;;;;8.60;5.23;;;-0.90;99.90;;;;;;2098371;28;20186;-68
2022/01/29 00:16:14;;;;;;;6.53;4.70;;;-0.90;99.90;;;;;;2098515;28;20174;-69
2022/01/29 00:17:14;;;;;;;8.97;5.50;;;-0.90;99.90;;;;;;2098600;28;20221;-69
2022/01/29 00:18:15;;;;;;;8.13;5.50;;;-0.90;99.90;;;;;;2098384;28;20231;-68
2022/01/29 00:19:16;;;;;;;8.60;4.67;;;-0.90;99.90;;;;;;2097759;28;20233;-69
2022/01/29 00:20:16;;;;;;;8.13;4.43;;;-1.00;99.90;;;;;;2097783;28;20647;-69
2022/01/29 00:21:17;;;;;;;9.67;4.97;;;-1.00;99.90;;;;;;2097955;28;20171;-68
2022/01/29 00:22:18;;;;;;;6.47;4.10;;;-1.00;99.90;;;;;;2097811;28;20175;-68
2022/01/29 00:23:18;;;;;;;7.00;4.53;;;-1.00;99.90;;;;;;2097745;28;20265;-69
2022/01/29 00:24:19;;;;;;;8.87;4.30;;;-1.00;99.90;;;;;;2088784;28;20225;-69
2022/01/29 00:25:20;;;;;;;9.00;4.67;;;-1.10;99.90;;;;;;2096454;28;20214;-69
2022/01/29 00:26:22;;;;;;;9.00;4.50;;;-1.20;99.90;;;;;;2097776;28;20179;-68
2022/01/29 00:27:25;;;;;;;10.30;4.50;;;-1.20;99.90;;;;;;2097765;28;20183;-69
2022/01/29 00:28:27;;;;;;;6.10;4.20;;;-1.20;99.90;;;;;;2098248;28;20603;-68
2022/01/29 00:29:27;;;;;;;8.98;4.72;;;-1.30;99.90;;;;;;2097755;28;20675;-68
2022/01/29 00:30:37;;;;;;;16.87;5.10;;;-1.30;99.90;;;;;;2097658;28;20189;-70
2022/01/29 00:31:38;;;;;;;7.75;4.28;;;-1.30;99.90;;;;;;2098389;28;20163;-68
2022/01/29 00:32:39;;;;;;;11.33;4.90;;;-1.30;99.90;;;;;;2098383;28;20210;-70
2022/01/29 00:33:39;;;;;;;7.83;4.70;;;-1.30;99.90;;;;;;2098350;28;20187;-68
2022/01/29 00:34:41;;;;;;;9.60;4.40;;;-1.30;99.90;;;;;;2097308;28;20187;-68
2022/01/29 00:35:42;;;;;;;8.93;5.03;;;-1.40;99.90;;;;;;2097647;28;20183;-68
2022/01/29 00:36:42;;;;;;;9.67;4.37;;;-1.40;99.90;;;;;;2098232;28;20557;-69
2022/01/29 00:37:43;;;;;;;8.77;4.57;;;-1.40;99.90;;;;;;2098126;28;20214;-68
2022/01/29 00:38:44;;;;;;;8.40;4.10;;;-1.40;99.90;;;;;;2098555;28;20190;-68
2022/01/29 00:39:44;;;;;;;8.40;3.93;;;-1.50;99.90;;;;;;2098334;28;20185;-68
2022/01/29 00:40:46;;;;;;;5.23;3.40;;;-1.50;99.90;;;;;;2098263;28;20198;-69
2022/01/29 00:41:47;;;;;;;7.57;3.90;;;-1.40;99.90;;;;;;2098283;28;20315;-69
2022/01/29 00:42:48;;;;;;;5.93;3.40;;;-1.40;99.90;;;;;;2097509;28;20671;-69
2022/01/29 00:43:48;;;;;;;7.68;3.35;;;-1.50;99.90;;;;;;2089495;28;20826;-68
2022/01/29 00:44:49;;;;;;;5.70;4.30;;;-1.50;99.90;;;;;;2097614;28;20202;-69
2022/01/29 00:45:50;;;;;;;6.23;4.10;;;-1.50;99.90;;;;;;2097697;28;20189;-68
2022/01/29 00:46:50;;;;;;;6.43;3.50;;;-1.50;99.90;;;;;;2097602;28;20186;-68
2022/01/29 00:47:51;;;;;;;5.47;3.37;;;-1.50;99.90;;;;;;2098503;28;20579;-69
2022/01/29 00:48:52;;;;;;;6.10;3.67;;;-1.50;99.90;;;;;;2098152;28;20186;-69
2022/01/29 00:49:53;;;;;;;7.23;3.83;;;-1.50;99.90;;;;;;2098360;28;20195;-69
2022/01/29 00:50:54;;;;;;;5.63;3.40;;;-1.60;99.90;;;;;;2098156;28;20260;-69
2022/01/29 00:51:55;;;;;;;7.40;3.38;;;-1.60;99.90;;;;;;2098279;28;20320;-70
2022/01/29 00:52:55;;;;;;;5.33;3.23;;;-1.60;99.90;;;;;;2097632;28;20619;-69
2022/01/29 00:53:56;;;;;;;6.87;3.87;;;-1.60;99.90;;;;;;2097676;28;20179;-69
2022/01/29 00:54:57;;;;;;;9.20;3.80;;;-1.60;99.90;;;;;;2097280;28;20245;-69
2022/01/29 00:55:57;;;;;;;6.97;3.83;;;-1.60;99.90;;;;;;2097471;28;20187;-69
2022/01/29 00:56:58;;;;;;;7.83;4.27;;;-1.70;99.90;;;;;;2097820;28;20179;-69
2022/01/29 00:57:59;;;;;;;8.13;4.57;;;-1.70;99.90;;;;;;2097445;28;20213;-69
2022/01/29 00:58:59;;;;;;;6.67;3.97;;;-1.80;99.90;;;;;;2098009;28;20179;-70
2022/01/29 01:00:00;;;;;;;9.00;3.83;;;-1.90;99.90;;;;;;2097505;28;20639;-68
2022/01/29 01:01:01;;;;;;;7.77;3.50;;;-1.90;99.90;;;;;;2097681;28;20202;-68
2022/01/29 01:02:03;;;;;;;6.17;3.60;;;-1.90;99.90;;;;;;2098153;28;20181;-69
2022/01/29 01:03:03;;;;;;;6.35;3.10;;;-1.80;99.90;;;;;;2097464;28;20964;-70
2022/01/29 01:04:04;;;;;;;4.93;3.07;;;-1.80;99.90;;;;;;2097379;28;20194;-69
2022/01/29 01:05:06;;;;;;;4.00;2.53;;;-1.80;99.90;;;;;;2097988;28;20178;-68
2022/01/29 01:06:06;;;;;;;5.05;2.90;;;-1.80;99.90;;;;;;2097281;28;20306;-68
2022/01/29 01:07:09;;;;;;;5.00;3.10;;;-1.80;99.90;;;;;;2097365;28;20205;-69
2022/01/29 01:08:11;;;;;;;7.97;3.33;;;-1.80;99.90;;;;;;2089245;28;20207;-69
2022/01/29 01:09:11;;;;;;;7.25;3.25;;;-1.80;99.90;;;;;;2097210;28;20599;-69
2022/01/29 01:10:13;;;;;;;4.73;3.17;;;-1.80;99.90;;;;;;2097948;28;20195;-69
2022/01/29 01:11:13;;;;;;;5.25;3.33;;;-1.90;99.90;;;;;;2097824;28;20657;-70
2022/01/29 01:12:14;;;;;;;3.93;2.60;;;-1.90;99.90;;;;;;2097131;28;20191;-69
2022/01/29 01:13:14;;;;;;;4.00;3.00;;;-2.00;99.90;;;;;;2097338;28;20203;-69
2022/01/29 01:14:15;;;;;;;5.90;3.00;;;-2.00;99.90;;;;;;2097902;28;20261;-68
2022/01/29 01:15:16;;;;;;;4.20;2.77;;;-2.00;99.90;;;;;;2097823;28;20183;-70
2022/01/29 01:16:16;;;;;;;9.93;3.30;;;-2.00;99.90;;;;;;2097895;28;20184;-68
2022/01/29 01:17:18;;;;;;;3.50;2.73;;;-2.00;99.90;;;;;;2097430;28;20183;-69
2022/01/29 01:18:19;;;;;;;4.50;2.97;;;-2.00;99.90;;;;;;2088874;28;20214;-69
2022/01/29 01:19:25;;;;;;;5.03;2.90;;;-1.90;99.90;;;;;;2089118;28;20655;-68
2022/01/29 01:20:27;;;;;;;6.43;3.25;;;-1.90;99.90;;;;;;2089582;28;20181;-68
2022/01/29 01:21:27;;;;;;;6.22;3.35;;;-1.90;99.90;;;;;;2097390;28;20281;-69
2022/01/29 01:22:28;;;;;;;4.67;3.03;;;-1.90;99.90;;;;;;2097924;28;20605;-70
2022/01/29 01:23:29;;;;;;;10.47;4.27;;;-1.90;99.90;;;;;;2097972;28;20647;-69
2022/01/29 01:24:29;;;;;;;12.80;4.90;;;-1.80;99.90;;;;;;2097715;28;20552;-69
2022/01/29 01:25:30;;;;;;;6.23;3.90;;;-1.80;99.90;;;;;;2097798;28;20192;-70
2022/01/29 01:26:31;;;;;;;10.53;3.70;;;-1.80;99.90;;;;;;2097887;28;20167;-69
2022/01/29 01:27:31;;;;;;;4.77;3.50;;;-1.80;99.90;;;;;;2097905;28;20209;-69
2022/01/29 01:28:32;;;;;;;6.50;3.50;;;-1.80;99.90;;;;;;2097033;28;20205;-71
2022/01/29 01:29:33;;;;;;;7.17;4.13;;;-1.80;99.90;;;;;;2088843;28;20183;-69
2022/01/29 01:30:35;;;;;;;7.15;4.22;;;-1.70;99.90;;;;;;2097111;28;21072;-69
2022/01/29 01:31:37;;;;;;;9.45;3.92;;;-1.70;99.90;;;;;;2089080;28;20719;-69
2022/01/29 01:32:38;;;;;;;7.15;3.85;;;-1.60;99.90;;;;;;2072727;28;20184;-69
2022/01/29 01:33:39;;;;;;;7.82;3.08;;;-1.70;99.90;;;;;;2080645;28;20245;-69
2022/01/29 01:34:51;;;;;;;8.60;3.93;;;-1.70;99.90;;;;;;2088644;28;20187;-69
2022/01/29 01:35:57;;;;;;;9.55;3.70;;;-1.60;99.90;;;;;;2097154;28;20182;-69
2022/01/29 01:37:03;;;;;;;7.63;3.70;;;-1.50;99.90;;;;;;2098293;28;20214;-69
2022/01/29 01:38:14;;;;;;;5.85;3.40;;;-1.50;99.90;;;;;;2096973;28;20201;-69
2022/01/29 01:39:18;;;;;;;8.52;3.72;;;-1.60;99.90;;;;;;2096985;28;20167;-71
2022/01/29 01:40:21;;;;;;;7.10;3.35;;;-1.50;99.90;;;;;;2097620;28;20216;-68
2022/01/29 01:41:25;;;;;;;7.25;3.53;;;-1.50;99.90;;;;;;2097851;28;20175;-69
2022/01/29 01:42:26;;;;;;;4.07;3.25;;;-1.50;99.90;;;;;;2097759;28;20261;-69
2022/01/29 01:43:28;;;;;;;7.57;3.33;;;-1.40;99.90;;;;;;2096945;28;20832;-69
2022/01/29 01:44:46;;;;;;;6.65;3.70;;;-1.40;99.90;;;;;;2096940;28;20203;-69
2022/01/29 01:45:47;;;;;;;6.60;3.90;;;-1.40;99.90;;;;;;2097056;28;20526;-70
2022/01/29 01:46:48;;;;;;;6.73;3.60;;;-1.40;99.90;;;;;;2089018;28;20282;-69
2022/01/29 01:47:49;;;;;;;9.00;3.65;;;-1.40;99.90;;;;;;2096921;28;20269;-69
2022/01/29 01:48:50;;;;;;;4.97;3.37;;;-1.30;99.90;;;;;;2097580;28;20183;-69
2022/01/29 01:49:50;;;;;;;6.93;3.70;;;-1.30;99.90;;;;;;2096935;28;20202;-69
2022/01/29 01:50:51;;;;;;;6.30;3.33;;;-1.30;99.90;;;;;;2096966;28;20224;-69
2022/01/29 01:51:52;;;;;;;5.53;3.30;;;-1.30;99.90;;;;;;2097007;28;20183;-69
2022/01/29 01:52:53;;;;;;;9.23;3.13;;;-1.20;99.90;;;;;;2088851;28;20207;-69
2022/01/29 01:53:53;;;;;;;6.13;3.00;;;-1.20;99.90;;;;;;2088769;28;20730;-69
2022/01/29 01:54:54;;;;;;;5.43;2.97;;;-1.10;99.90;;;;;;2096849;28;20195;-69
2022/01/29 01:55:55;;;;;;;6.90;3.17;;;-1.00;99.90;;;;;;2097501;28;20190;-69
2022/01/29 01:56:55;;;;;;;5.80;2.80;;;-1.00;99.90;;;;;;2097578;28;20205;-69
2022/01/29 01:57:57;;;;;;;5.53;2.80;;;-0.90;99.90;;;;;;2097091;28;20191;-69
2022/01/29 01:58:58;;;;;;;6.43;3.13;;;-0.90;99.90;;;;;;2097429;28;20183;-68
2022/01/29 01:59:59;;;;;;;3.50;2.47;;;-0.90;99.90;;;;;;2096787;28;20414;-69
2022/01/29 02:00:59;;;;;;;3.53;2.40;;;-0.90;99.90;;;;;;2088457;28;20233;-69
2022/01/29 02:02:00;;;;;;;3.97;2.30;;;-0.80;99.90;;;;;;2096926;28;20180;-69
2022/01/29 02:03:01;;;;;;;3.33;2.33;;;-0.80;99.90;;;;;;2097499;28;20174;-69
2022/01/29 02:04:02;;;;;;;4.03;2.30;;;-0.70;99.90;;;;;;2096761;28;20701;-69
2022/01/29 02:05:03;;;;;;;6.23;1.90;;;-0.70;99.90;;;;;;2088528;28;20192;-69
2022/01/29 02:06:05;;;;;;;3.95;1.70;;;-0.70;99.90;;;;;;2096837;28;20206;-69
2022/01/29 02:07:06;;;;;;;3.05;1.88;;;-0.60;99.90;;;;;;2097256;28;20191;-70
2022/01/29 02:08:08;;;;;;;3.27;1.73;;;-0.60;99.90;;;;;;2096749;28;20191;-69
2022/01/29 02:09:11;;;;;;;3.45;1.92;;;-0.50;99.90;;;;;;2088681;28;20221;-69
2022/01/29 02:10:13;;;;;;;2.92;1.70;;;-0.50;99.90;;;;;;2096773;28;20195;-70
2022/01/29 02:11:14;;;;;;;3.13;1.77;;;-0.50;99.90;;;;;;2096762;28;20195;-70
2022/01/29 02:12:14;;;;;;;7.00;2.27;;;-0.50;99.90;;;;;;2096708;28;20195;-69
2022/01/29 02:13:15;;;;;;;3.23;1.90;;;-0.50;99.90;;;;;;2097433;28;20199;-69
2022/01/29 02:14:17;;;;;;;2.70;1.60;;;-0.50;99.90;;;;;;2088323;28;20187;-69
2022/01/29 02:15:21;;;;;;;2.67;1.65;;;-0.40;99.90;;;;;;2088707;28;20797;-69
2022/01/29 02:16:22;;;;;;;2.15;1.70;;;-0.40;99.90;;;;;;2096678;28;20255;-69
2022/01/29 02:17:23;;;;;;;2.50;1.65;;;-0.40;99.90;;;;;;2088518;28;20184;-69
2022/01/29 02:18:24;;;;;;;2.50;1.80;;;-0.40;99.90;;;;;;2096517;28;20606;-70
2022/01/29 02:19:25;;;;;;;1.97;1.60;;;-0.40;99.90;;;;;;2097006;28;20221;-69
2022/01/29 02:20:29;;;;;;;2.75;1.45;;;-0.40;99.90;;;;;;2097138;28;20902;-70
2022/01/29 02:21:30;;;;;;;3.25;1.60;;;-0.40;99.90;;;;;;2097337;28;20180;-70
2022/01/29 02:22:30;;;;;;;2.50;1.30;;;-0.40;99.90;;;;;;2096663;28;20178;-69
2022/01/29 02:23:31;;;;;;;2.90;1.73;;;-0.40;99.90;;;;;;2096604;28;20180;-69
2022/01/29 02:24:32;;;;;;;4.77;1.87;;;-0.30;99.90;;;;;;2097119;28;20174;-69
2022/01/29 02:25:45;;;;;;;3.50;1.90;;;-0.30;99.90;;;;;;2097332;28;20181;-69
2022/01/29 02:26:46;;;;;;;3.55;2.10;;;-0.40;99.90;;;;;;2096646;28;20225;-69
2022/01/29 02:27:46;;;;;;;3.13;2.10;;;-0.40;99.90;;;;;;2096668;28;20191;-70
2022/01/29 02:28:47;;;;;;;2.63;2.17;;;-0.50;99.90;;;;;;2097306;28;20183;-69
2022/01/29 02:29:49;;;;;;;2.50;1.70;;;-0.60;99.90;;;;;;2097323;28;20835;-69
2022/01/29 02:30:59;;;;;;;2.85;1.90;;;-0.50;99.90;;;;;;2097411;28;20279;-69
2022/01/29 02:32:00;;;;;;;3.42;2.28;;;-0.50;99.90;;;;;;2097423;28;20167;-70
2022/01/29 02:33:09;;;;;;;3.93;2.17;;;-0.60;99.90;;;;;;2096562;28;20180;-69
2022/01/29 02:34:09;;;;;;;3.95;1.70;;;-0.60;99.90;;;;;;2089469;28;20215;-68
2022/01/29 02:35:10;;;;;;;2.27;1.60;;;-0.60;99.90;;;;;;2088486;28;20188;-71
2022/01/29 02:36:11;;;;;;;2.57;1.50;;;-0.60;99.90;;;;;;2096701;28;20263;-69
2022/01/29 02:37:13;;;;;;;2.80;1.60;;;-0.60;99.90;;;;;;2097284;28;20237;-69
2022/01/29 02:38:17;;;;;;;4.05;1.83;;;-0.60;99.90;;;;;;2097224;28;20606;-68
2022/01/29 02:39:19;;;;;;;2.50;1.55;;;-0.50;99.90;;;;;;2097125;28;20266;-69
2022/01/29 02:40:21;;;;;;;1.98;1.48;;;-0.50;99.90;;;;;;2097168;28;20183;-69
2022/01/29 02:41:24;;;;;;;3.40;1.60;;;-0.50;99.90;;;;;;2096449;28;20726;-69
2022/01/29 02:42:24;;;;;;;2.55;1.58;;;-0.40;99.90;;;;;;2096646;28;20180;-70
2022/01/29 02:43:34;;;;;;;2.53;1.73;;;-0.30;99.90;;;;;;2097138;28;20191;-69
2022/01/29 02:44:35;;;;;;;2.97;1.90;;;-0.30;99.90;;;;;;2096463;28;20222;-69
2022/01/29 02:45:36;;;;;;;3.60;1.67;;;-0.20;99.90;;;;;;2096623;28;20184;-69
2022/01/29 02:46:52;;;;;;;8.27;2.60;;;-0.20;99.90;;;;;;2097277;28;20718;-69
2022/01/29 02:47:52;;;;;;;4.15;2.13;;;-0.20;99.90;;;;;;2097266;28;20237;-69
2022/01/29 02:48:53;;;;;;;5.73;2.40;;;-0.20;99.90;;;;;;2098247;28;20715;-69
2022/01/29 02:49:54;;;;;;;2.90;2.53;;;-0.30;99.90;;;;;;2098858;28;20656;-69
2022/01/29 02:50:55;;;;;;;8.60;3.40;;;-0.50;99.90;;;;;;2098928;28;20209;-68
2022/01/29 02:51:57;;;;;;;3.13;2.33;;;-0.50;99.90;;;;;;2098890;28;20180;-69
2022/01/29 02:52:58;;;;;;;3.78;2.75;;;-0.50;99.90;;;;;;2098921;28;20272;-69
2022/01/29 02:53:59;;;;;;;3.63;2.50;;;-0.40;99.90;;;;;;2098219;28;20176;-70
2022/01/29 02:55:00;;;;;;;3.83;2.50;;;-0.40;99.90;;;;;;2098150;28;20183;-69
2022/01/29 02:56:00;;;;;;;3.47;2.53;;;-0.50;99.90;;;;;;2098141;28;20233;-69
2022/01/29 02:57:01;;;;;;;3.90;2.30;;;-0.40;99.90;;;;;;2098315;28;20277;-69
2022/01/29 02:58:02;;;;;;;3.77;2.63;;;-0.40;99.90;;;;;;2098827;28;20179;-68
2022/01/29 02:59:03;;;;;;;3.92;2.58;;;-0.40;99.90;;;;;;2098718;28;20233;-70
2022/01/29 03:00:10;;;;;;;4.17;2.53;;;-0.40;99.90;;;;;;2098182;28;20191;-69
2022/01/29 03:01:10;;;;;;;4.72;2.83;;;-0.40;99.90;;;;;;2098444;28;20195;-69
2022/01/29 03:02:11;;;;;;;5.10;2.87;;;-0.40;99.90;;;;;;2098946;28;20711;-70
2022/01/29 03:03:12;;;;;;;4.40;3.00;;;-0.40;99.90;;;;;;2098984;28;20667;-69
2022/01/29 03:04:12;;;;;;;3.87;2.40;;;-0.50;99.90;;;;;;2098305;28;20722;-69
2022/01/29 03:05:14;;;;;;;4.70;2.80;;;-0.50;99.90;;;;;;2090038;28;20180;-69
2022/01/29 03:06:14;;;;;;;4.72;2.45;;;-0.50;99.90;;;;;;2098528;28;20281;-69
2022/01/29 03:07:15;;;;;;;4.93;2.70;;;-0.50;99.90;;;;;;2098648;28;20629;-69
2022/01/29 03:08:15;;;;;;;4.63;2.80;;;-0.50;99.90;;;;;;2098722;28;20602;-69
2022/01/29 03:09:16;;;;;;;5.27;2.97;;;-0.50;99.90;;;;;;2098878;28;20247;-68
2022/01/29 03:10:17;;;;;;;5.40;3.20;;;-0.40;99.90;;;;;;2098184;28;20176;-69
2022/01/29 03:11:22;;;;;;;5.97;2.92;;;-0.50;99.90;;;;;;2098361;28;20188;-68
2022/01/29 03:12:23;;;;;;;5.63;2.78;;;-0.60;99.90;;;;;;2098130;28;20187;-69
2022/01/29 03:13:23;;;;;;;5.20;2.77;;;-0.50;99.90;;;;;;2090154;28;20180;-70
2022/01/29 03:14:24;;;;;;;4.73;3.10;;;-0.50;99.90;;;;;;2097994;28;20178;-69
2022/01/29 03:15:25;;;;;;;3.80;2.67;;;-0.50;99.90;;;;;;2098759;28;20210;-68
2022/01/29 03:16:25;;;;;;;5.30;2.73;;;-0.50;99.90;;;;;;2098275;28;20254;-69
2022/01/29 03:17:26;;;;;;;2.93;2.37;;;-0.50;99.90;;;;;;2098043;28;20622;-70
2022/01/29 03:18:27;;;;;;;3.33;2.23;;;-0.40;99.90;;;;;;2098869;28;20191;-69
2022/01/29 03:19:27;;;;;;;4.03;2.57;;;-0.40;99.90;;;;;;2098742;28;20175;-69
2022/01/29 03:20:30;;;;;;;4.00;2.50;;;-0.40;99.90;;;;;;2098818;28;20664;-68
2022/01/29 03:21:31;;;;;;;2.60;2.03;;;-0.40;99.90;;;;;;2098259;28;20176;-69
2022/01/29 03:22:31;;;;;;;3.73;2.30;;;-0.40;99.90;;;;;;2098044;28;20176;-69
2022/01/29 03:23:32;;;;;;;3.77;2.50;;;-0.40;99.90;;;;;;2098774;28;20195;-69
2022/01/29 03:24:33;;;;;;;4.67;2.20;;;-0.30;99.90;;;;;;2098622;28;20182;-68
2022/01/29 03:25:33;;;;;;;3.10;2.20;;;-0.30;99.90;;;;;;2098658;28;20261;-68
2022/01/29 03:26:34;;;;;;;5.07;2.63;;;-0.30;99.90;;;;;;2098990;28;20542;-70
2022/01/29 03:27:35;;;;;;;3.67;2.20;;;-0.30;99.90;;;;;;2098757;28;20520;-69
2022/01/29 03:28:36;;;;;;;5.95;2.35;;;-0.30;99.90;;;;;;2098686;28;20741;-69
2022/01/29 03:29:36;;;;;;;3.10;2.20;;;-0.30;99.90;;;;;;2098682;28;20187;-69
2022/01/29 03:30:37;;;;;;;2.63;1.77;;;-0.30;99.90;;;;;;2098710;28;20199;-69
2022/01/29 03:31:38;;;;;;;4.73;1.90;;;-0.30;99.90;;;;;;2098867;28;20598;-70
2022/01/29 03:32:39;;;;;;;2.90;1.70;;;-0.20;99.90;;;;;;2098757;28;20194;-69
2022/01/29 03:33:39;;;;;;;1.90;1.33;;;-0.20;99.90;;;;;;2098204;28;20187;-69
2022/01/29 03:34:40;;;;;;;3.30;1.50;;;-0.20;99.90;;;;;;2089770;28;20180;-70
2022/01/29 03:35:41;;;;;;;1.60;1.40;;;-0.10;99.90;;;;;;2098114;28;20206;-69
2022/01/29 03:36:41;;;;;;;1.50;1.17;;;-0.10;99.90;;;;;;2098746;28;20187;-69
2022/01/29 03:37:42;;;;;;;1.53;1.20;;;0.10;99.70;;;;;;2089625;28;20557;-69
2022/01/29 03:38:42;;;;;;;1.60;1.10;;;0.20;98.50;;;;;;2089529;28;20219;-69
2022/01/29 03:39:45;;;;;;;1.40;1.10;;;0.20;97.90;;;;;;2098551;28;20167;-69
2022/01/29 03:40:48;;;;;;;1.25;1.02;;;0.30;97.70;;;;;;2098573;28;20187;-69
2022/01/29 03:41:49;;;;;;;1.10;0.90;;;0.30;96.60;;;;;;2098509;28;20184;-69
2022/01/29 03:43:01;;;;;;;1.27;1.10;;;0.40;96.00;;;;;;2098790;28;20183;-69
2022/01/29 03:44:05;;;;;;;2.15;1.08;;;0.40;95.40;;;;;;2098514;28;20160;-69
2022/01/29 03:45:08;;;;;;;0.75;0.75;;;0.40;95.40;;;;;;2098618;28;20184;-69
2022/01/29 03:46:08;;;;;;;1.65;0.98;;;0.50;95.10;;;;;;2098618;28;20259;-70
2022/01/29 03:47:09;;;;;;;1.13;0.80;;;0.50;95.30;;;;;;2098751;28;20300;-69
2022/01/29 03:48:10;;;;;;;0.65;0.63;;;0.50;95.50;;;;;;2098602;28;20191;-68
2022/01/29 03:49:11;;;;;;;1.37;0.80;;;0.60;94.60;;;;;;2098589;28;20206;-69
2022/01/29 03:50:12;;;;;;;0.80;0.70;;;0.70;94.30;;;;;;2098569;28;20187;-69
2022/01/29 03:51:13;;;;;;;1.10;0.80;;;0.90;92.70;;;;;;2097462;28;20562;-69
2022/01/29 03:52:13;;;;;;;0.80;0.70;;;1.00;91.80;;;;;;2097919;28;20549;-69
2022/01/29 03:53:14;;;;;;;0.70;0.70;;;1.00;91.80;;;;;;2098629;28;20187;-68
2022/01/29 03:54:15;;;;;;;1.03;0.70;;;1.00;91.60;;;;;;2098650;28;20183;-69
2022/01/29 03:55:16;;;;;;;1.57;0.90;;;1.00;91.80;;;;;;2096729;28;20263;-69
2022/01/29 03:56:17;;;;;;;0.83;0.70;;;1.00;91.20;;;;;;2098551;28;20530;-70
2022/01/29 03:57:17;;;;;;;2.20;0.80;;;1.00;90.80;;;;;;2097952;28;20225;-69
2022/01/29 03:58:18;;;;;;;3.33;0.80;;;1.00;90.70;;;;;;2097911;28;20230;-69
2022/01/29 03:59:19;;;;;;;0.97;0.63;;;1.10;90.40;;;;;;2098288;28;20583;-69
2022/01/29 04:00:19;;;;;;;0.87;0.70;;;1.10;90.80;;;;;;2098365;28;20623;-69
2022/01/29 04:01:20;;;;;;;1.33;0.90;;;1.10;90.30;;;;;;2098560;28;20172;-69
2022/01/29 04:02:21;;;;;;;1.63;0.80;;;1.10;90.30;;;;;;2098046;28;20183;-70
2022/01/29 04:03:21;;;;;;;1.90;1.20;;;1.10;90.90;;;;;;2098178;28;20702;-69
2022/01/29 04:04:22;;;;;;;1.90;1.50;;;1.00;92.10;;;;;;2098432;28;20599;-69
2022/01/29 04:05:26;;;;;;;1.43;1.10;;;0.80;93.10;;;;;;2097982;28;20172;-69
2022/01/29 04:06:26;;;;;;;2.00;1.10;;;0.80;93.90;;;;;;2097869;28;20259;-68
2022/01/29 04:07:27;;;;;;;1.43;0.97;;;0.80;94.40;;;;;;2097970;28;20176;-70
2022/01/29 04:08:28;;;;;;;1.23;1.00;;;0.70;94.80;;;;;;2097920;28;20275;-68
2022/01/29 04:09:28;;;;;;;1.47;1.00;;;0.60;95.50;;;;;;2098020;28;20172;-69
2022/01/29 04:10:29;;;;;;;2.80;0.90;;;0.60;95.30;;;;;;2097894;28;20183;-69
2022/01/29 04:11:30;;;;;;;0.90;0.80;;;0.70;94.70;;;;;;2098421;28;20205;-69
2022/01/29 04:12:37;;;;;;;2.28;0.90;;;0.80;93.90;;;;;;2098605;28;20188;-70
2022/01/29 04:13:44;;;;;;;1.75;0.88;;;0.90;93.50;;;;;;2098605;28;20221;-69
2022/01/29 04:14:45;;;;;;;1.27;0.70;;;0.90;92.90;;;;;;2097561;28;20175;-68
2022/01/29 04:15:45;;;;;;;1.13;0.80;;;1.00;90.90;;;;;;2089430;28;20188;-69
2022/01/29 04:16:46;;;;;;;0.90;0.70;;;1.10;90.30;;;;;;2097769;28;20266;-68
2022/01/29 04:17:47;;;;;;;0.93;0.60;;;1.20;88.30;;;;;;2097768;28;20246;-69
2022/01/29 04:18:48;;;;;;;0.90;0.63;;;1.30;86.40;;;;;;2097740;28;20197;-69
2022/01/29 04:19:48;;;;;;;0.67;0.60;;;1.30;82.60;;;;;;2097635;28;20185;-69
2022/01/29 04:20:49;;;;;;;0.80;0.50;;;1.30;81.00;;;;;;2097613;28;20199;-69
2022/01/29 04:21:50;;;;;;;1.17;0.70;;;1.40;82.20;;;;;;2097620;28;20220;-70
2022/01/29 04:22:50;;;;;;;0.90;0.70;;;1.30;83.00;;;;;;2097785;28;20187;-69
2022/01/29 04:23:51;;;;;;;1.80;0.80;;;1.40;84.70;;;;;;2098583;28;20910;-69
2022/01/29 04:24:52;;;;;;;1.00;0.70;;;1.40;82.70;;;;;;2098239;28;20187;-70
2022/01/29 04:25:53;;;;;;;1.10;0.70;;;1.40;81.60;;;;;;2097812;28;20187;-69
2022/01/29 04:26:54;;;;;;;1.00;0.68;;;1.40;83.50;;;;;;2097733;28;20428;-69
2022/01/29 04:27:55;;;;;;;0.90;0.53;;;1.40;82.50;;;;;;2098339;28;20183;-69
2022/01/29 04:28:55;;;;;;;0.60;0.60;;;1.50;81.90;;;;;;2097475;28;20660;-68
2022/01/29 04:29:59;;;;;;;0.70;0.70;;;1.40;82.30;;;;;;2097688;28;20215;-69
2022/01/29 04:31:06;;;;;;;1.38;0.70;;;1.40;80.80;;;;;;2098469;28;20231;-69
2022/01/29 04:32:15;;;;;;;0.77;0.50;;;1.40;81.20;;;;;;2098427;28;20181;-68
2022/01/29 04:34:19;;;;;;;0.52;0.50;;;1.40;79.60;;;;;;2097752;28;20194;-68
2022/01/29 04:35:20;;;;;;;0.90;0.70;;;1.50;80.50;;;;;;2098352;28;20210;-69
2022/01/29 04:36:21;;;;;;;0.60;0.50;;;1.40;81.80;;;;;;2097631;28;20265;-69
2022/01/29 04:37:22;;;;;;;1.00;0.50;;;1.40;81.50;;;;;;2097586;28;20183;-69
2022/01/29 04:38:23;;;;;;;1.73;0.40;;;1.40;80.50;;;;;;2098236;28;20211;-69
2022/01/29 04:39:23;;;;;;;0.47;0.40;;;1.60;78.30;;;;;;2097628;28;20180;-69
2022/01/29 04:40:24;;;;;;;1.43;1.07;;;1.60;76.30;;;;;;2097557;28;20176;-70
2022/01/29 04:41:25;;;;;;;0.60;0.60;;;1.70;76.00;;;;;;2097620;28;20206;-68
2022/01/29 04:42:26;;;;;;;0.40;0.40;;;1.70;74.20;;;;;;2097505;28;20233;-69
2022/01/29 04:43:26;;;;;;;0.60;0.50;;;1.70;74.60;;;;;;2098011;28;20246;-69
2022/01/29 04:44:27;;;;;;;0.50;0.50;;;1.70;74.20;;;;;;2097983;28;20183;-69
2022/01/29 04:45:28;;;;;;;1.27;0.40;;;1.60;78.50;;;;;;2089120;28;20877;-69
2022/01/29 04:46:29;;;;;;;0.50;0.50;;;1.60;76.40;;;;;;2089379;28;20270;-69
2022/01/29 04:47:30;;;;;;;0.60;0.60;;;1.70;73.80;;;;;;2098040;28;20184;-68
2022/01/29 04:48:30;;;;;;;0.40;0.40;;;1.80;75.40;;;;;;2098242;28;20175;-69
2022/01/29 04:49:31;;;;;;;0.40;0.40;;;1.70;76.00;;;;;;2098073;28;20175;-69
2022/01/29 04:50:32;;;;;;;1.50;0.50;;;1.80;74.60;;;;;;2098104;28;20176;-68
2022/01/29 04:51:32;;;;;;;0.67;0.60;;;1.80;74.80;;;;;;2097462;28;20192;-70
2022/01/29 04:52:33;;;;;;;1.57;0.70;;;1.80;74.20;;;;;;2097586;28;20188;-69
2022/01/29 04:53:34;;;;;;;0.57;0.57;;;1.70;74.10;;;;;;2098272;28;20194;-69
2022/01/29 04:54:34;;;;;;;1.23;0.60;;;1.60;78.20;;;;;;2098089;28;20628;-70
2022/01/29 04:55:36;;;;;;;0.57;0.57;;;1.50;78.50;;;;;;2098103;28;20191;-68
2022/01/29 04:56:37;;;;;;;1.63;0.70;;;1.50;79.30;;;;;;2097512;28;20824;-68
2022/01/29 04:57:40;;;;;;;9.93;4.10;;;1.40;80.40;;;;;;2097588;28;20281;-69
2022/01/29 04:58:40;;;;;;;10.55;5.50;;;1.40;79.50;;;;;;2097993;28;20204;-69
2022/01/29 04:59:41;;;;;;;6.27;2.97;;;1.40;78.70;;;;;;2098055;28;20186;-69
2022/01/29 05:00:41;;;;;;;3.03;1.80;;;1.40;79.40;;;;;;2098021;28;20283;-69
2022/01/29 05:01:42;;;;;;;2.33;1.30;;;1.40;78.80;;;;;;2097544;28;20184;-68
2022/01/29 05:02:43;;;;;;;1.33;0.87;;;1.40;78.30;;;;;;2097357;28;20191;-68
2022/01/29 05:03:43;;;;;;;0.70;0.70;;;1.40;77.50;;;;;;2098057;28;20184;-69
2022/01/29 05:04:44;;;;;;;1.07;0.80;;;1.40;76.80;;;;;;2097125;28;20188;-68
2022/01/29 05:05:45;;;;;;;1.40;0.87;;;1.40;76.70;;;;;;2089042;28;20178;-69
2022/01/29 05:06:45;;;;;;;1.10;0.97;;;1.50;76.40;;;;;;2089105;28;20179;-68
2022/01/29 05:07:46;;;;;;;0.80;0.73;;;1.50;76.10;;;;;;2089128;28;20184;-68
2022/01/29 05:08:47;;;;;;;1.27;0.80;;;1.40;77.10;;;;;;2089043;28;20207;-68
2022/01/29 05:09:47;;;;;;;0.90;0.77;;;1.40;77.00;;;;;;2097285;28;20187;-69
2022/01/29 05:10:48;;;;;;;1.00;0.70;;;1.40;76.50;;;;;;2097496;28;20196;-69
2022/01/29 05:11:51;;;;;;;0.77;0.67;;;1.50;76.00;;;;;;2096950;28;20179;-69
2022/01/29 05:13:00;;;;;;;0.70;0.70;;;1.50;75.10;;;;;;2089335;28;20180;-69
2022/01/29 05:14:03;;;;;;;0.68;0.60;;;1.50;75.00;;;;;;2097478;28;20522;-68
2022/01/29 05:15:10;;;;;;;0.50;0.50;;;1.50;74.80;;;;;;2097869;28;20197;-68
2022/01/29 05:27:40;;;;;;;2.42;1.40;;;1.80;70.60;;;;;;2076684;28;20189;-69
2022/01/29 05:28:40;;;;;;;3.53;1.70;;;1.80;70.40;;;;;;2097660;28;20170;-69
2022/01/29 05:29:41;;;;;;;3.07;1.57;;;1.80;70.70;;;;;;2097564;28;20199;-69
2022/01/29 05:30:42;;;;;;;3.03;1.57;;;1.80;70.40;;;;;;2097804;28;20209;-70
2022/01/29 05:31:44;;;;;;;3.17;2.00;;;1.90;69.80;;;;;;2097026;28;20198;-69
2022/01/29 05:32:44;;;;;;;4.45;1.80;;;1.90;69.50;;;;;;2097078;28;20192;-70
2022/01/29 05:33:45;;;;;;;4.63;2.00;;;1.90;68.50;;;;;;2097536;28;20561;-69
2022/01/29 05:34:45;;;;;;;4.27;1.87;;;1.90;68.60;;;;;;2097430;28;20178;-70